Culpeper, Arkansas
Current Conditions -  °F | °C
As of 9:35 AM on Friday 28 Nov 2014 (Local Time) from KCCA Reporting Station
Clear Clear  
Wind Chill:   Ceiling: Unl
Heat Index:   Visibility: 8mi
Dew Point:   Wind: 6mph
Humidity: 70%   Direction: 190°S
Pressure: 30.33"   Gusts: NA
Location:  35.6269°N, 92.5508°W
Report Text: KCCA 281535Z AUTO 19005KT 8SM CLR 05/00 A3033 RMK AO2
Loading
Personal Weather Stations






























Interactive Weather Map New forecast layout! Learn more

10-Day Weather Forecast

Advertisements
Track Severe Weather on mobile